createdAt,value
2022-11-24T00:01:32.267Z,14.45
2022-11-24T00:04:02.165Z,14.55
2022-11-24T00:06:31.287Z,14.20
2022-11-24T00:08:59.778Z,13.82
2022-11-24T00:11:29.472Z,13.88
2022-11-24T00:13:58.225Z,14.93
2022-11-24T00:16:28.051Z,15.02
2022-11-24T00:18:57.713Z,14.65
2022-11-24T00:21:26.771Z,15.82
2022-11-24T00:23:55.259Z,15.23
2022-11-24T00:26:27.561Z,17.52
2022-11-24T00:28:57.034Z,18.40
2022-11-24T00:31:27.335Z,18.13
2022-11-24T00:33:56.952Z,16.67
2022-11-24T00:36:26.498Z,21.45
2022-11-24T00:38:55.889Z,18.42
2022-11-24T00:41:24.864Z,21.83
2022-11-24T00:43:53.673Z,20.02
2022-11-24T00:46:22.342Z,20.00
2022-11-24T00:48:51.111Z,19.33
2022-11-24T00:51:20.283Z,40.85
2022-11-24T00:53:51.133Z,24.67
2022-11-24T00:56:21.384Z,24.42
2022-11-24T00:58:50.913Z,25.30
2022-11-24T01:01:23.288Z,21.85
2022-11-24T01:04:02.567Z,20.98
2022-11-24T01:06:31.510Z,19.70
2022-11-24T01:08:59.867Z,20.33
2022-11-24T01:11:30.039Z,30.50
2022-11-24T01:14:00.451Z,24.58
2022-11-24T01:16:29.961Z,19.98
2022-11-24T01:19:04.247Z,24.10
2022-11-24T01:21:33.071Z,19.70
2022-11-24T01:24:01.688Z,21.58
2022-11-24T01:26:30.061Z,21.17
2022-11-24T01:28:58.820Z,21.65
2022-11-24T01:31:27.340Z,22.90
2022-11-24T01:33:55.843Z,23.45
2022-11-24T01:36:24.318Z,20.42
2022-11-24T01:38:52.721Z,25.15
2022-11-24T01:41:23.064Z,21.17
2022-11-24T01:43:52.619Z,20.73
2022-11-24T01:46:33.217Z,20.45
2022-11-24T01:49:12.610Z,20.90
2022-11-24T01:51:49.445Z,21.13
2022-11-24T01:54:22.265Z,21.27
2022-11-24T01:56:53.221Z,21.98
2022-11-24T01:59:22.344Z,23.08
2022-11-24T02:01:57.337Z,23.30
2022-11-24T02:04:33.855Z,23.38
2022-11-24T02:07:12.465Z,23.85
2022-11-24T02:09:47.318Z,26.33
2022-11-24T02:12:15.756Z,26.10
2022-11-24T02:14:45.279Z,28.70
2022-11-24T02:17:23.727Z,30.92
2022-11-24T02:20:04.537Z,26.73
2022-11-24T02:22:37.462Z,26.58
2022-11-24T02:25:17.471Z,25.40
2022-11-24T02:27:50.731Z,25.02
2022-11-24T02:32:50.578Z,27.95
2022-11-24T02:35:19.220Z,28.63
2022-11-24T02:37:47.719Z,27.52
2022-11-24T02:40:17.037Z,26.08
2022-11-24T02:42:50.460Z,26.70
2022-11-24T02:45:19.037Z,24.00
2022-11-24T02:47:47.497Z,24.92
2022-11-24T02:50:16.053Z,24.13
2022-11-24T02:52:49.443Z,24.55
2022-11-24T02:55:17.830Z,24.20
2022-11-24T02:57:56.545Z,26.58
2022-11-24T03:00:24.946Z,27.20
2022-11-24T03:03:04.094Z,32.47
2022-11-24T03:05:32.618Z,32.35
2022-11-24T03:08:11.096Z,34.28
2022-11-24T03:10:39.819Z,32.92
2022-11-24T03:13:08.363Z,36.15
2022-11-24T03:15:36.846Z,35.05
2022-11-24T03:18:05.315Z,50.10
2022-11-24T03:20:44.568Z,69.88
2022-11-24T03:23:12.953Z,32.30
2022-11-24T03:25:41.333Z,38.58
2022-11-24T03:28:09.703Z,31.98
2022-11-24T03:30:51.049Z,32.78
2022-11-24T03:33:19.564Z,40.35
2022-11-24T03:35:47.942Z,39.50
2022-11-24T03:38:16.317Z,32.10
2022-11-24T03:40:44.840Z,31.75
2022-11-24T03:43:13.222Z,31.48
2022-11-24T03:45:46.340Z,26.13
2022-11-24T03:48:15.802Z,61.13
2022-11-24T03:50:44.668Z,25.73
2022-11-24T03:53:13.092Z,38.17
2022-11-24T03:55:43.514Z,40.85
2022-11-24T03:58:12.340Z,43.25
2022-11-24T04:00:40.990Z,29.98
2022-11-24T04:03:09.521Z,31.60
2022-11-24T04:05:38.017Z,30.67
2022-11-24T04:08:06.662Z,23.60
2022-11-24T04:10:37.430Z,22.05
2022-11-24T04:13:10.865Z,16.75
2022-11-24T04:15:41.274Z,16.00
2022-11-24T04:18:10.736Z,32.30
2022-11-24T04:20:40.295Z,20.92
2022-11-24T04:23:09.039Z,28.25
2022-11-24T04:25:37.869Z,19.08
2022-11-24T04:28:06.323Z,31.77
2022-11-24T04:30:34.654Z,33.25
2022-11-24T04:33:03.076Z,64.60
2022-11-24T04:35:31.537Z,114.38
2022-11-24T04:38:02.654Z,39.08
2022-11-24T04:40:31.178Z,25.15
2022-11-24T04:43:01.064Z,26.77
2022-11-24T04:45:29.468Z,41.85
2022-11-24T04:48:08.001Z,28.90
2022-11-24T04:50:37.187Z,33.47
2022-11-24T04:53:09.097Z,27.17
2022-11-24T04:55:47.433Z,28.65
2022-11-24T04:58:26.116Z,24.60
2022-11-24T05:00:54.517Z,22.05
2022-11-24T05:03:22.871Z,29.13
2022-11-24T05:06:01.972Z,24.17
2022-11-24T05:08:30.927Z,26.15
2022-11-24T05:11:09.891Z,26.95
2022-11-24T05:13:43.487Z,27.45
2022-11-24T05:16:22.777Z,26.83
2022-11-24T05:18:51.143Z,27.30
2022-11-24T05:21:20.884Z,28.88
2022-11-24T05:23:49.327Z,35.13
2022-11-24T05:26:27.982Z,37.97
2022-11-24T05:28:56.302Z,41.97
2022-11-24T05:31:29.667Z,33.38
2022-11-24T05:33:59.621Z,37.67
2022-11-24T05:36:46.428Z,32.47
2022-11-24T05:39:24.883Z,65.25
2022-11-24T05:41:53.248Z,40.35
2022-11-24T05:44:21.629Z,34.85
2022-11-24T05:46:54.652Z,33.22
2022-11-24T05:49:23.063Z,26.70
2022-11-24T05:51:56.068Z,23.88
2022-11-24T05:54:24.441Z,23.45
2022-11-24T05:56:57.885Z,24.10
2022-11-24T05:59:26.212Z,24.63
2022-11-24T06:01:54.710Z,24.75
2022-11-24T06:04:23.212Z,25.27
2022-11-24T06:06:51.760Z,25.52
2022-11-24T06:09:20.666Z,26.00
2022-11-24T06:11:49.728Z,26.08
2022-11-24T06:14:18.078Z,24.00
2022-11-24T06:16:46.475Z,23.05
2022-11-24T06:19:15.749Z,24.48
2022-11-24T06:21:44.528Z,24.55
2022-11-24T06:24:12.944Z,24.63
2022-11-24T06:26:46.173Z,25.13
2022-11-24T06:29:14.440Z,27.20
2022-11-24T06:31:42.902Z,27.15
2022-11-24T06:34:16.265Z,27.40
2022-11-24T06:36:44.658Z,28.83
2022-11-24T06:39:13.487Z,26.83
2022-11-24T06:41:41.803Z,27.35
2022-11-24T06:44:10.253Z,29.09
2022-11-24T06:46:38.757Z,27.25
2022-11-24T06:49:07.146Z,26.00
2022-11-24T06:51:35.802Z,24.40
2022-11-24T06:54:07.820Z,23.65
2022-11-24T06:56:36.785Z,23.90
2022-11-24T06:59:06.344Z,22.63
2022-11-24T07:01:36.642Z,23.85
2022-11-24T07:04:06.514Z,23.15
2022-11-24T07:06:36.043Z,22.55
2022-11-24T07:09:04.548Z,22.88
2022-11-24T07:11:32.930Z,22.67
2022-11-24T07:14:01.991Z,21.50
2022-11-24T07:16:30.941Z,20.92
2022-11-24T07:18:59.550Z,21.35
2022-11-24T07:21:28.930Z,21.13
2022-11-24T07:23:57.844Z,20.77
2022-11-24T07:26:26.575Z,20.40
2022-11-24T07:28:55.096Z,21.42
2022-11-24T07:31:27.237Z,20.15
2022-11-24T07:33:55.921Z,20.13
2022-11-24T07:36:24.515Z,20.77
2022-11-24T07:38:55.962Z,18.60
2022-11-24T07:41:24.337Z,20.63
2022-11-24T07:43:53.451Z,19.00
2022-11-24T07:46:21.944Z,16.30
2022-11-24T07:48:50.411Z,16.40
2022-11-24T07:51:28.788Z,15.18
2022-11-24T07:53:57.577Z,14.82
2022-11-24T07:56:25.913Z,15.35
2022-11-24T07:58:54.250Z,15.55
2022-11-24T08:01:23.572Z,13.68
2022-11-24T08:03:52.076Z,14.98
2022-11-24T08:06:39.763Z,15.30
2022-11-24T08:09:10.361Z,13.73
2022-11-24T08:11:48.869Z,13.55
2022-11-24T08:14:29.405Z,12.45
2022-11-24T08:17:03.785Z,13.17
2022-11-24T08:19:32.880Z,14.00
2022-11-24T08:22:01.737Z,14.48
2022-11-24T08:24:31.993Z,13.82
2022-11-24T08:27:10.004Z,12.70
2022-11-24T08:29:47.916Z,12.98
2022-11-24T08:32:22.175Z,13.65
2022-11-24T08:35:08.465Z,13.63
2022-11-24T08:37:41.714Z,14.20
2022-11-24T08:40:10.502Z,12.55
2022-11-24T08:42:48.695Z,17.55
2022-11-24T08:45:21.652Z,18.42
2022-11-24T08:47:55.669Z,18.88
2022-11-24T08:50:26.685Z,20.73
2022-11-24T08:53:05.032Z,43.60
2022-11-24T08:55:37.176Z,24.85
2022-11-24T08:58:05.534Z,20.50
2022-11-24T09:00:33.887Z,16.45
2022-11-24T09:03:02.260Z,17.27
2022-11-24T09:05:51.303Z,12.45
2022-11-24T09:08:18.867Z,10.75
2022-11-24T09:10:47.263Z,10.48
2022-11-24T09:13:15.554Z,9.10
2022-11-24T09:15:44.925Z,8.80
2022-11-24T09:18:13.357Z,8.80
2022-11-24T09:20:41.813Z,10.60
2022-11-24T09:23:10.611Z,9.15
2022-11-24T09:25:38.968Z,8.95
2022-11-24T09:28:07.278Z,9.13
2022-11-24T09:30:47.390Z,9.00
2022-11-24T09:33:17.743Z,9.30
2022-11-24T09:35:46.135Z,9.27
2022-11-24T09:38:14.644Z,9.00
2022-11-24T09:40:43.500Z,9.48
2022-11-24T09:43:37.413Z,13.32
2022-11-24T09:46:23.569Z,11.18
2022-11-24T09:49:03.884Z,11.80
2022-11-24T09:51:32.951Z,11.90
2022-11-24T09:54:13.384Z,12.50
2022-11-24T09:56:52.780Z,11.40
2022-11-24T09:59:30.778Z,11.25
2022-11-24T10:02:01.762Z,11.57
2022-11-24T10:04:43.587Z,11.15
2022-11-24T10:07:12.015Z,9.95
2022-11-24T10:09:56.564Z,9.27
2022-11-24T10:12:44.771Z,9.75
2022-11-24T10:15:38.522Z,9.68
2022-11-24T10:18:27.050Z,9.60
2022-11-24T10:21:05.733Z,10.38
2022-11-24T10:23:50.714Z,10.65
2022-11-24T10:26:34.504Z,9.65
2022-11-24T10:32:19.282Z,10.77
2022-11-24T10:34:51.794Z,12.25
2022-11-24T10:37:30.988Z,14.80
2022-11-24T10:40:55.931Z,12.95
2022-11-24T10:43:10.800Z,12.82
2022-11-24T10:45:44.010Z,12.13
2022-11-24T10:48:29.810Z,11.60
2022-11-24T10:51:21.762Z,12.82
2022-11-24T10:54:00.442Z,16.13
2022-11-24T10:56:38.941Z,19.88
2022-11-24T10:59:28.241Z,19.02
2022-11-24T11:01:57.305Z,21.73
2022-11-24T11:04:27.383Z,23.98
2022-11-24T11:07:14.478Z,18.42
2022-11-24T11:09:42.848Z,16.40
2022-11-24T11:12:42.092Z,16.77
2022-11-24T11:15:22.397Z,21.25
2022-11-24T11:20:21.993Z,17.45
2022-11-24T11:22:57.044Z,15.85
2022-11-24T11:25:35.897Z,18.20
2022-11-24T11:28:18.092Z,18.23
2022-11-24T11:31:18.148Z,19.95
2022-11-24T11:37:00.573Z,19.60
2022-11-24T11:39:48.873Z,17.80
2022-11-24T11:45:38.857Z,20.60
2022-11-24T11:48:09.101Z,15.33
2022-11-24T11:53:48.747Z,20.98
2022-11-24T11:56:23.309Z,16.17
2022-11-24T11:58:57.797Z,18.17
2022-11-24T12:01:39.134Z,16.83
2022-11-24T12:04:13.547Z,16.90
2022-11-24T12:06:44.807Z,21.42
2022-11-24T12:09:34.591Z,17.90
2022-11-24T12:12:13.611Z,22.30
2022-11-24T12:14:44.901Z,18.02
2022-11-24T12:17:31.772Z,21.77
2022-11-24T12:20:02.915Z,22.02
2022-11-24T12:22:40.585Z,22.45
2022-11-24T12:25:21.298Z,18.05
2022-11-24T12:28:10.969Z,20.25
2022-11-24T12:30:51.168Z,18.58
2022-11-24T12:33:25.657Z,18.23
2022-11-24T12:36:04.854Z,15.98
2022-11-24T12:38:36.083Z,15.48
2022-11-24T12:41:41.200Z,14.98
2022-11-24T12:44:31.412Z,14.52
2022-11-24T12:47:11.593Z,13.55
2022-11-24T12:50:05.205Z,15.23
2022-11-24T12:52:36.050Z,15.15
2022-11-24T12:55:19.009Z,24.15
2022-11-24T12:57:56.045Z,18.45
2022-11-24T13:00:46.554Z,21.75
2022-11-24T13:03:23.844Z,24.85
2022-11-24T13:06:03.778Z,22.33
2022-11-24T13:08:37.085Z,19.20
2022-11-24T13:11:24.442Z,16.15
2022-11-24T13:14:25.333Z,19.13
2022-11-24T13:19:44.359Z,26.85
2022-11-24T13:22:18.948Z,19.85
2022-11-24T13:25:03.806Z,22.02
2022-11-24T13:27:53.480Z,18.90
2022-11-24T13:30:36.928Z,19.80
2022-11-24T13:33:16.164Z,21.23
2022-11-24T13:36:03.764Z,36.90
2022-11-24T13:38:42.643Z,25.75
2022-11-24T13:41:28.218Z,28.20
2022-11-24T13:44:17.897Z,32.75
2022-11-24T13:47:06.252Z,29.13
2022-11-24T13:49:43.147Z,25.85
2022-11-24T13:55:34.259Z,15.13
2022-11-24T13:58:22.189Z,20.42
2022-11-24T14:01:09.004Z,20.65
2022-11-24T14:04:07.226Z,20.13
2022-11-24T14:06:42.879Z,21.65
2022-11-24T14:11:39.453Z,36.80
2022-11-24T14:14:20.807Z,37.80
2022-11-24T14:16:49.370Z,45.92
2022-11-24T14:19:18.819Z,53.92
2022-11-24T14:21:56.676Z,36.65
2022-11-24T14:24:39.692Z,36.42
2022-11-24T14:27:15.761Z,41.42
2022-11-24T14:29:59.720Z,40.28
2022-11-24T14:32:28.255Z,32.15
2022-11-24T14:38:13.510Z,36.72
2022-11-24T14:40:45.617Z,33.38
2022-11-24T14:43:25.729Z,34.10
2022-11-24T14:45:55.750Z,40.10
2022-11-24T14:48:27.896Z,46.78
2022-11-24T14:51:11.652Z,50.75
2022-11-24T14:53:45.266Z,40.10
2022-11-24T14:56:19.702Z,52.58
2022-11-24T14:58:59.222Z,75.90
2022-11-24T15:01:36.702Z,38.87
2022-11-24T15:07:42.633Z,30.05
2022-11-24T15:10:35.624Z,30.23
2022-11-24T15:13:23.445Z,42.17
2022-11-24T15:16:02.355Z,37.55
2022-11-24T15:18:36.362Z,44.08
2022-11-24T15:21:17.219Z,39.75
2022-11-24T15:24:05.532Z,46.30
2022-11-24T15:26:45.060Z,35.45
2022-11-24T15:29:15.618Z,26.90
2022-11-24T15:31:56.039Z,33.53
2022-11-24T15:34:34.032Z,25.73
2022-11-24T15:37:06.535Z,25.83
2022-11-24T15:39:34.995Z,24.73
2022-11-24T15:42:04.118Z,41.38
2022-11-24T15:44:43.679Z,30.77
2022-11-24T15:47:12.402Z,27.05
2022-11-24T15:49:40.821Z,38.20
2022-11-24T15:52:21.089Z,39.10
2022-11-24T15:54:59.561Z,39.70
2022-11-24T15:57:29.151Z,40.33
2022-11-24T15:59:59.313Z,34.10
2022-11-24T16:02:38.415Z,68.90
2022-11-24T16:05:12.913Z,34.60
2022-11-24T16:07:46.985Z,30.92
2022-11-24T16:10:22.450Z,38.30
2022-11-24T16:12:51.112Z,32.67
2022-11-24T16:15:23.143Z,37.78
2022-11-24T16:17:51.835Z,27.90
2022-11-24T16:20:31.384Z,34.78
2022-11-24T16:23:00.379Z,32.97
2022-11-24T16:25:29.247Z,43.15
2022-11-24T16:27:57.618Z,42.15
2022-11-24T16:30:26.072Z,32.63
2022-11-24T16:32:55.446Z,49.90
2022-11-24T16:35:34.203Z,48.10
2022-11-24T16:38:05.886Z,91.53
2022-11-24T16:40:34.559Z,56.53
2022-11-24T16:43:03.103Z,58.63
2022-11-24T16:45:31.546Z,52.92
2022-11-24T16:48:00.912Z,31.42
2022-11-24T16:50:30.375Z,43.70
2022-11-24T16:52:58.846Z,54.80
2022-11-24T16:55:27.418Z,60.13
2022-11-24T16:57:56.552Z,60.90
2022-11-24T17:00:24.998Z,35.97
2022-11-24T17:02:53.532Z,35.50
2022-11-24T17:05:23.930Z,43.03
2022-11-24T17:07:53.202Z,47.17
2022-11-24T17:10:31.592Z,38.83
2022-11-24T17:13:00.033Z,42.90
2022-11-24T17:15:34.570Z,39.08
2022-11-24T17:21:09.740Z,29.35
2022-11-24T17:23:38.850Z,27.27
2022-11-24T17:26:08.150Z,24.75
2022-11-24T17:28:46.631Z,26.15
2022-11-24T17:31:19.407Z,35.97
2022-11-24T17:33:48.009Z,27.00
2022-11-24T17:36:27.716Z,31.05
2022-11-24T17:38:59.414Z,32.42
2022-11-24T17:41:33.929Z,23.52
2022-11-24T17:44:09.109Z,22.45
2022-11-24T17:46:38.019Z,27.08
2022-11-24T17:49:08.727Z,22.67
2022-11-24T17:51:40.147Z,41.50
2022-11-24T17:54:44.833Z,41.15
2022-11-24T17:56:56.936Z,25.75
2022-11-24T17:59:36.157Z,22.95
2022-11-24T18:02:15.393Z,20.15
2022-11-24T18:04:55.384Z,29.75
2022-11-24T18:07:28.628Z,29.13
2022-11-24T18:10:07.230Z,40.45
2022-11-24T18:12:35.563Z,25.25
2022-11-24T18:15:09.133Z,23.73
2022-11-24T18:17:37.475Z,22.83
2022-11-24T18:20:11.672Z,22.60
2022-11-24T18:23:05.084Z,22.17
2022-11-24T18:25:37.695Z,24.38
2022-11-24T18:28:08.265Z,23.23
2022-11-24T18:30:51.708Z,24.73
2022-11-24T18:33:21.095Z,16.98
2022-11-24T18:36:00.420Z,21.10
2022-11-24T18:38:30.017Z,18.30
2022-11-24T18:41:02.495Z,16.17
2022-11-24T18:43:37.052Z,15.73
2022-11-24T18:46:10.890Z,16.73
2022-11-24T18:48:45.146Z,18.10
2022-11-24T18:51:16.764Z,20.15
2022-11-24T18:53:46.277Z,20.85
2022-11-24T18:56:17.728Z,21.73
2022-11-24T18:58:48.596Z,25.73
2022-11-24T19:01:18.412Z,21.38
2022-11-24T19:03:50.824Z,24.85
2022-11-24T19:06:27.286Z,18.30
2022-11-24T19:08:55.894Z,24.75
2022-11-24T19:11:30.165Z,20.67
2022-11-24T19:13:58.652Z,36.50
2022-11-24T19:16:27.134Z,18.33
2022-11-24T19:19:07.098Z,17.30
2022-11-24T19:21:37.539Z,17.13
2022-11-24T19:24:07.041Z,17.65
2022-11-24T19:26:35.532Z,17.40
2022-11-24T19:29:05.780Z,17.85
2022-11-24T19:31:34.716Z,18.30
2022-11-24T19:34:08.514Z,19.00
2022-11-24T19:36:36.894Z,17.10
2022-11-24T19:39:06.087Z,19.23
2022-11-24T19:41:35.977Z,19.30
2022-11-24T19:44:04.411Z,19.15
2022-11-24T19:46:33.839Z,19.40
2022-11-24T19:49:02.822Z,18.50
2022-11-24T19:51:32.948Z,20.67
2022-11-24T19:54:01.975Z,21.15
2022-11-24T19:56:31.646Z,18.33
2022-11-24T19:58:59.993Z,19.55
2022-11-24T20:01:29.387Z,15.88
2022-11-24T20:04:04.952Z,17.75
2022-11-24T20:06:39.312Z,18.40
2022-11-24T20:09:08.858Z,19.58
2022-11-24T20:11:37.523Z,17.58
2022-11-24T20:14:16.825Z,16.83
2022-11-24T20:16:47.363Z,15.43
2022-11-24T20:19:17.731Z,15.82
2022-11-24T20:21:48.188Z,18.50
2022-11-24T20:24:16.805Z,15.63
2022-11-24T20:26:49.693Z,15.63
2022-11-24T20:29:18.591Z,15.20
2022-11-24T20:31:48.074Z,16.98
2022-11-24T20:34:16.854Z,17.45
2022-11-24T20:36:45.902Z,17.58
2022-11-24T20:39:18.334Z,19.23
2022-11-24T20:41:46.832Z,20.90
2022-11-24T20:44:16.590Z,20.05
2022-11-24T20:46:50.290Z,17.98
2022-11-24T20:49:20.499Z,17.08
2022-11-24T20:51:49.002Z,16.73
2022-11-24T20:54:18.185Z,16.63
2022-11-24T20:56:47.241Z,16.25
2022-11-24T20:59:16.742Z,18.17
2022-11-24T21:01:46.765Z,17.83
2022-11-24T21:04:22.010Z,17.17
2022-11-24T21:06:51.237Z,18.77
2022-11-24T21:09:21.050Z,19.75
2022-11-24T21:11:59.508Z,18.77
2022-11-24T21:14:31.194Z,16.13
2022-11-24T21:17:11.901Z,25.92
2022-11-24T21:19:40.250Z,17.38
2022-11-24T21:22:13.627Z,18.70
2022-11-24T21:24:41.976Z,19.48
2022-11-24T21:27:15.383Z,19.42
2022-11-24T21:29:43.867Z,18.52
2022-11-24T21:32:12.340Z,18.63
2022-11-24T21:34:40.799Z,19.48
2022-11-24T21:37:09.128Z,20.83
2022-11-24T21:39:47.577Z,16.20
2022-11-24T21:42:16.876Z,17.13
2022-11-24T21:44:55.264Z,16.92
2022-11-24T21:47:23.651Z,18.23
2022-11-24T21:50:01.865Z,13.80
2022-11-24T21:52:31.318Z,14.93
2022-11-24T21:55:09.751Z,11.82
2022-11-24T21:57:48.195Z,16.45
2022-11-24T22:00:26.839Z,13.88
2022-11-24T22:03:04.947Z,12.10
2022-11-24T22:05:43.507Z,13.70
2022-11-24T22:08:18.088Z,12.48
2022-11-24T22:10:46.558Z,12.07
2022-11-24T22:13:15.313Z,11.45
2022-11-24T22:15:43.734Z,13.73
2022-11-24T22:18:22.018Z,13.90
2022-11-24T22:20:56.773Z,11.55
2022-11-24T22:23:30.794Z,11.40
2022-11-24T22:26:05.751Z,13.63
2022-11-24T22:28:34.581Z,10.63
2022-11-24T22:31:14.515Z,14.50
2022-11-24T22:33:48.655Z,16.70
2022-11-24T22:36:22.553Z,13.15
2022-11-24T22:39:06.254Z,13.50
2022-11-24T22:41:40.329Z,11.60
2022-11-24T22:44:08.704Z,12.32
2022-11-24T22:46:37.075Z,12.77
2022-11-24T22:49:10.640Z,10.85
2022-11-24T22:51:39.517Z,12.10
2022-11-24T22:54:07.832Z,12.18
2022-11-24T22:56:36.269Z,12.20
2022-11-24T22:59:04.991Z,16.13
2022-11-24T23:01:36.536Z,13.60
2022-11-24T23:04:05.012Z,10.48
2022-11-24T23:06:34.204Z,9.82
2022-11-24T23:09:02.873Z,12.35
2022-11-24T23:11:38.609Z,16.08
2022-11-24T23:14:16.482Z,14.45
2022-11-24T23:16:45.027Z,17.52
2022-11-24T23:19:13.450Z,22.30
2022-11-24T23:21:41.780Z,13.65
2022-11-24T23:24:10.939Z,11.05
2022-11-24T23:26:40.537Z,11.27
2022-11-24T23:29:10.456Z,12.50
2022-11-24T23:31:43.729Z,12.65
2022-11-24T23:34:17.136Z,12.48
2022-11-24T23:36:50.465Z,12.77
2022-11-24T23:39:28.999Z,13.95
2022-11-24T23:41:57.356Z,16.00
2022-11-24T23:44:25.681Z,33.08
2022-11-24T23:46:59.284Z,32.30
2022-11-24T23:49:33.407Z,21.13
2022-11-24T23:52:01.944Z,33.50
2022-11-24T23:54:40.821Z,23.52
2022-11-24T23:57:14.023Z,12.80
2022-11-24T23:59:47.224Z,11.20
